sensor_id;sensor_type;location;lat;lon;timestamp;P1;durP1;ratioP1;P2;durP2;ratioP2
8594;SDS011;4335;48.860;9.198;2024-02-21T00:01:21;9.40;;;4.10;;
8594;SDS011;4335;48.860;9.198;2024-02-21T00:03:50;10.60;;;4.73;;
8594;SDS011;4335;48.860;9.198;2024-02-21T00:06:21;8.07;;;3.63;;
8594;SDS011;4335;48.860;9.198;2024-02-21T00:08:58;6.23;;;4.17;;
8594;SDS011;4335;48.860;9.198;2024-02-21T00:11:32;8.97;;;4.10;;
8594;SDS011;4335;48.860;9.198;2024-02-21T00:14:02;9.27;;;4.13;;
8594;SDS011;4335;48.860;9.198;2024-02-21T00:16:36;10.00;;;4.53;;
8594;SDS011;4335;48.860;9.198;2024-02-21T00:19:13;9.30;;;4.17;;
8594;SDS011;4335;48.860;9.198;2024-02-21T00:21:44;6.87;;;4.63;;
8594;SDS011;4335;48.860;9.198;2024-02-21T00:24:11;10.27;;;3.70;;
8594;SDS011;4335;48.860;9.198;2024-02-21T00:26:38;7.67;;;4.10;;
8594;SDS011;4335;48.860;9.198;2024-02-21T00:29:09;7.87;;;3.47;;
8594;SDS011;4335;48.860;9.198;2024-02-21T00:31:44;6.80;;;3.80;;
8594;SDS011;4335;48.860;9.198;2024-02-21T00:34:13;4.73;;;3.60;;
8594;SDS011;4335;48.860;9.198;2024-02-21T00:36:40;5.40;;;4.20;;
8594;SDS011;4335;48.860;9.198;2024-02-21T00:39:10;7.73;;;4.03;;
8594;SDS011;4335;48.860;9.198;2024-02-21T00:41:38;9.57;;;3.97;;
8594;SDS011;4335;48.860;9.198;2024-02-21T00:44:05;7.47;;;3.80;;
8594;SDS011;4335;48.860;9.198;2024-02-21T00:46:38;5.57;;;3.57;;
8594;SDS011;4335;48.860;9.198;2024-02-21T00:49:06;7.73;;;3.90;;
8594;SDS011;4335;48.860;9.198;2024-02-21T00:51:38;9.70;;;3.60;;
8594;SDS011;4335;48.860;9.198;2024-02-21T00:54:08;7.97;;;3.67;;
8594;SDS011;4335;48.860;9.198;2024-02-21T00:56:35;10.40;;;3.97;;
8594;SDS011;4335;48.860;9.198;2024-02-21T00:59:12;6.90;;;4.00;;
8594;SDS011;4335;48.860;9.198;2024-02-21T01:01:45;8.50;;;4.20;;
8594;SDS011;4335;48.860;9.198;2024-02-21T01:04:15;9.33;;;4.13;;
8594;SDS011;4335;48.860;9.198;2024-02-21T01:06:44;7.80;;;4.43;;
8594;SDS011;4335;48.860;9.198;2024-02-21T01:09:11;7.67;;;3.83;;
8594;SDS011;4335;48.860;9.198;2024-02-21T01:11:42;11.57;;;3.77;;
8594;SDS011;4335;48.860;9.198;2024-02-21T01:14:09;9.13;;;3.40;;
8594;SDS011;4335;48.860;9.198;2024-02-21T01:16:37;9.40;;;4.60;;
8594;SDS011;4335;48.860;9.198;2024-02-21T01:19:07;12.50;;;3.77;;
8594;SDS011;4335;48.860;9.198;2024-02-21T01:21:35;8.60;;;3.37;;
8594;SDS011;4335;48.860;9.198;2024-02-21T01:24:04;5.23;;;3.67;;
8594;SDS011;4335;48.860;9.198;2024-02-21T01:26:31;3.93;;;3.10;;
8594;SDS011;4335;48.860;9.198;2024-02-21T01:28:59;7.93;;;3.33;;
8594;SDS011;4335;48.860;9.198;2024-02-21T01:31:26;9.57;;;3.93;;
8594;SDS011;4335;48.860;9.198;2024-02-21T01:33:56;10.00;;;4.20;;
8594;SDS011;4335;48.860;9.198;2024-02-21T01:36:24;6.07;;;3.60;;
8594;SDS011;4335;48.860;9.198;2024-02-21T01:38:51;6.90;;;3.63;;
8594;SDS011;4335;48.860;9.198;2024-02-21T01:41:20;6.07;;;3.63;;
8594;SDS011;4335;48.860;9.198;2024-02-21T01:43:48;7.33;;;3.37;;
8594;SDS011;4335;48.860;9.198;2024-02-21T01:46:15;8.10;;;3.47;;
8594;SDS011;4335;48.860;9.198;2024-02-21T01:48:52;5.43;;;3.23;;
8594;SDS011;4335;48.860;9.198;2024-02-21T01:51:19;6.30;;;3.00;;
8594;SDS011;4335;48.860;9.198;2024-02-21T01:53:47;7.87;;;3.70;;
8594;SDS011;4335;48.860;9.198;2024-02-21T01:56:16;9.50;;;4.00;;
8594;SDS011;4335;48.860;9.198;2024-02-21T01:58:52;7.13;;;3.63;;
8594;SDS011;4335;48.860;9.198;2024-02-21T02:01:24;5.80;;;2.90;;
8594;SDS011;4335;48.860;9.198;2024-02-21T02:03:52;7.53;;;3.77;;
8594;SDS011;4335;48.860;9.198;2024-02-21T02:06:22;7.17;;;3.23;;
8594;SDS011;4335;48.860;9.198;2024-02-21T02:08:50;4.50;;;3.40;;
8594;SDS011;4335;48.860;9.198;2024-02-21T02:11:20;6.53;;;3.90;;
8594;SDS011;4335;48.860;9.198;2024-02-21T02:13:49;7.10;;;3.83;;
8594;SDS011;4335;48.860;9.198;2024-02-21T02:16:17;7.47;;;3.77;;
8594;SDS011;4335;48.860;9.198;2024-02-21T02:18:45;6.50;;;3.60;;
8594;SDS011;4335;48.860;9.198;2024-02-21T02:21:16;6.50;;;3.63;;
8594;SDS011;4335;48.860;9.198;2024-02-21T02:24:24;7.47;;;3.70;;
8594;SDS011;4335;48.860;9.198;2024-02-21T02:26:52;11.23;;;4.97;;
8594;SDS011;4335;48.860;9.198;2024-02-21T02:29:22;9.67;;;4.73;;
8594;SDS011;4335;48.860;9.198;2024-02-21T02:32:02;8.53;;;4.10;;
8594;SDS011;4335;48.860;9.198;2024-02-21T02:34:30;8.80;;;4.03;;
8594;SDS011;4335;48.860;9.198;2024-02-21T02:36:57;7.10;;;3.50;;
8594;SDS011;4335;48.860;9.198;2024-02-21T02:39:32;4.57;;;3.23;;
8594;SDS011;4335;48.860;9.198;2024-02-21T02:42:05;5.87;;;3.70;;
8594;SDS011;4335;48.860;9.198;2024-02-21T02:44:36;7.07;;;3.97;;
8594;SDS011;4335;48.860;9.198;2024-02-21T02:47:04;5.47;;;3.60;;
8594;SDS011;4335;48.860;9.198;2024-02-21T02:49:35;5.53;;;3.70;;
8594;SDS011;4335;48.860;9.198;2024-02-21T02:52:08;9.57;;;4.13;;
8594;SDS011;4335;48.860;9.198;2024-02-21T02:54:40;8.13;;;3.90;;
8594;SDS011;4335;48.860;9.198;2024-02-21T02:57:10;5.77;;;3.17;;
8594;SDS011;4335;48.860;9.198;2024-02-21T02:59:40;6.27;;;3.07;;
8594;SDS011;4335;48.860;9.198;2024-02-21T03:02:13;6.13;;;3.80;;
8594;SDS011;4335;48.860;9.198;2024-02-21T03:04:41;6.20;;;3.20;;
8594;SDS011;4335;48.860;9.198;2024-02-21T03:07:11;3.80;;;3.00;;
8594;SDS011;4335;48.860;9.198;2024-02-21T03:09:44;6.77;;;3.70;;
8594;SDS011;4335;48.860;9.198;2024-02-21T03:12:18;6.07;;;3.20;;
8594;SDS011;4335;48.860;9.198;2024-02-21T03:14:53;4.93;;;2.80;;
8594;SDS011;4335;48.860;9.198;2024-02-21T03:17:20;9.63;;;3.37;;
8594;SDS011;4335;48.860;9.198;2024-02-21T03:19:48;5.47;;;3.17;;
8594;SDS011;4335;48.860;9.198;2024-02-21T03:22:15;6.73;;;3.03;;
8594;SDS011;4335;48.860;9.198;2024-02-21T03:24:47;8.57;;;3.30;;
8594;SDS011;4335;48.860;9.198;2024-02-21T03:27:21;7.97;;;3.50;;
8594;SDS011;4335;48.860;9.198;2024-02-21T03:29:48;6.87;;;3.27;;
8594;SDS011;4335;48.860;9.198;2024-02-21T03:32:16;6.00;;;3.23;;
8594;SDS011;4335;48.860;9.198;2024-02-21T03:34:49;6.17;;;3.20;;
8594;SDS011;4335;48.860;9.198;2024-02-21T03:37:20;4.13;;;3.70;;
8594;SDS011;4335;48.860;9.198;2024-02-21T03:39:55;7.67;;;3.47;;
8594;SDS011;4335;48.860;9.198;2024-02-21T03:42:22;7.77;;;3.50;;
8594;SDS011;4335;48.860;9.198;2024-02-21T03:44:54;4.70;;;3.27;;
8594;SDS011;4335;48.860;9.198;2024-02-21T03:47:22;6.20;;;3.43;;
8594;SDS011;4335;48.860;9.198;2024-02-21T03:49:49;7.10;;;3.60;;
8594;SDS011;4335;48.860;9.198;2024-02-21T03:52:23;4.17;;;3.03;;
8594;SDS011;4335;48.860;9.198;2024-02-21T03:54:50;9.30;;;4.23;;
8594;SDS011;4335;48.860;9.198;2024-02-21T03:57:21;8.50;;;4.00;;
8594;SDS011;4335;48.860;9.198;2024-02-21T03:59:50;10.40;;;3.83;;
8594;SDS011;4335;48.860;9.198;2024-02-21T04:02:17;5.43;;;2.97;;
8594;SDS011;4335;48.860;9.198;2024-02-21T04:04:45;6.63;;;3.33;;
8594;SDS011;4335;48.860;9.198;2024-02-21T04:07:19;6.77;;;3.50;;
8594;SDS011;4335;48.860;9.198;2024-02-21T04:09:49;7.03;;;3.50;;
8594;SDS011;4335;48.860;9.198;2024-02-21T04:12:24;5.90;;;3.47;;
8594;SDS011;4335;48.860;9.198;2024-02-21T04:14:54;7.03;;;3.30;;
8594;SDS011;4335;48.860;9.198;2024-02-21T04:17:22;10.80;;;4.53;;
8594;SDS011;4335;48.860;9.198;2024-02-21T04:19:49;5.90;;;3.20;;
8594;SDS011;4335;48.860;9.198;2024-02-21T04:22:19;5.97;;;3.70;;
8594;SDS011;4335;48.860;9.198;2024-02-21T04:24:47;4.30;;;3.27;;
8594;SDS011;4335;48.860;9.198;2024-02-21T04:27:25;7.80;;;3.60;;
8594;SDS011;4335;48.860;9.198;2024-02-21T04:29:52;8.83;;;4.20;;
8594;SDS011;4335;48.860;9.198;2024-02-21T04:32:20;6.07;;;3.30;;
8594;SDS011;4335;48.860;9.198;2024-02-21T04:34:48;6.17;;;3.50;;
8594;SDS011;4335;48.860;9.198;2024-02-21T04:37:21;6.37;;;3.57;;
8594;SDS011;4335;48.860;9.198;2024-02-21T04:40:00;8.07;;;3.60;;
8594;SDS011;4335;48.860;9.198;2024-02-21T04:42:35;8.00;;;3.70;;
8594;SDS011;4335;48.860;9.198;2024-02-21T04:45:06;5.87;;;3.47;;
8594;SDS011;4335;48.860;9.198;2024-02-21T04:47:34;5.90;;;3.73;;
8594;SDS011;4335;48.860;9.198;2024-02-21T04:50:07;8.03;;;3.80;;
8594;SDS011;4335;48.860;9.198;2024-02-21T04:52:35;4.70;;;3.40;;
8594;SDS011;4335;48.860;9.198;2024-02-21T04:55:05;6.83;;;3.63;;
8594;SDS011;4335;48.860;9.198;2024-02-21T04:57:37;7.73;;;3.40;;
8594;SDS011;4335;48.860;9.198;2024-02-21T05:00:14;9.10;;;3.77;;
8594;SDS011;4335;48.860;9.198;2024-02-21T05:02:50;5.40;;;3.60;;
8594;SDS011;4335;48.860;9.198;2024-02-21T05:05:28;6.53;;;3.57;;
8594;SDS011;4335;48.860;9.198;2024-02-21T05:07:56;4.80;;;3.20;;
8594;SDS011;4335;48.860;9.198;2024-02-21T05:10:26;6.97;;;3.90;;
8594;SDS011;4335;48.860;9.198;2024-02-21T05:12:55;6.40;;;4.20;;
8594;SDS011;4335;48.860;9.198;2024-02-21T05:15:22;5.87;;;3.40;;
8594;SDS011;4335;48.860;9.198;2024-02-21T05:17:50;8.10;;;4.10;;
8594;SDS011;4335;48.860;9.198;2024-02-21T05:20:17;5.70;;;3.70;;
8594;SDS011;4335;48.860;9.198;2024-02-21T05:22:44;7.43;;;3.20;;
8594;SDS011;4335;48.860;9.198;2024-02-21T05:25:14;7.30;;;3.67;;
8594;SDS011;4335;48.860;9.198;2024-02-21T05:27:42;8.13;;;3.43;;
8594;SDS011;4335;48.860;9.198;2024-02-21T05:30:11;5.13;;;3.20;;
8594;SDS011;4335;48.860;9.198;2024-02-21T05:32:45;4.73;;;3.30;;
8594;SDS011;4335;48.860;9.198;2024-02-21T05:35:13;4.77;;;2.97;;
8594;SDS011;4335;48.860;9.198;2024-02-21T05:37:43;7.50;;;3.63;;
8594;SDS011;4335;48.860;9.198;2024-02-21T05:40:15;7.50;;;3.80;;
8594;SDS011;4335;48.860;9.198;2024-02-21T05:42:42;7.83;;;4.00;;
8594;SDS011;4335;48.860;9.198;2024-02-21T05:45:22;5.13;;;3.77;;
8594;SDS011;4335;48.860;9.198;2024-02-21T05:47:50;6.70;;;3.93;;
8594;SDS011;4335;48.860;9.198;2024-02-21T05:50:20;7.80;;;3.37;;
8594;SDS011;4335;48.860;9.198;2024-02-21T05:52:50;8.10;;;3.67;;
8594;SDS011;4335;48.860;9.198;2024-02-21T05:55:21;8.27;;;3.80;;
8594;SDS011;4335;48.860;9.198;2024-02-21T05:57:55;6.20;;;3.77;;
8594;SDS011;4335;48.860;9.198;2024-02-21T06:00:33;7.27;;;4.17;;
8594;SDS011;4335;48.860;9.198;2024-02-21T06:03:00;10.03;;;4.20;;
8594;SDS011;4335;48.860;9.198;2024-02-21T06:05:35;7.80;;;3.57;;
8594;SDS011;4335;48.860;9.198;2024-02-21T06:08:09;8.73;;;3.10;;
8594;SDS011;4335;48.860;9.198;2024-02-21T06:10:37;6.87;;;3.40;;
8594;SDS011;4335;48.860;9.198;2024-02-21T06:13:04;5.77;;;3.37;;
8594;SDS011;4335;48.860;9.198;2024-02-21T06:15:36;5.23;;;3.17;;
8594;SDS011;4335;48.860;9.198;2024-02-21T06:18:03;7.67;;;3.80;;
8594;SDS011;4335;48.860;9.198;2024-02-21T06:20:31;6.63;;;3.30;;
8594;SDS011;4335;48.860;9.198;2024-02-21T06:23:11;4.57;;;2.70;;
8594;SDS011;4335;48.860;9.198;2024-02-21T06:25:41;9.30;;;3.33;;
8594;SDS011;4335;48.860;9.198;2024-02-21T06:28:24;5.40;;;3.37;;
8594;SDS011;4335;48.860;9.198;2024-02-21T06:30:53;5.23;;;3.30;;
8594;SDS011;4335;48.860;9.198;2024-02-21T06:33:21;6.60;;;3.27;;
8594;SDS011;4335;48.860;9.198;2024-02-21T06:35:51;5.53;;;3.07;;
8594;SDS011;4335;48.860;9.198;2024-02-21T06:38:25;8.57;;;3.67;;
8594;SDS011;4335;48.860;9.198;2024-02-21T06:40:52;7.77;;;3.63;;
8594;SDS011;4335;48.860;9.198;2024-02-21T06:43:23;8.10;;;3.80;;
8594;SDS011;4335;48.860;9.198;2024-02-21T06:45:51;7.40;;;3.60;;
8594;SDS011;4335;48.860;9.198;2024-02-21T06:48:23;5.50;;;3.10;;
8594;SDS011;4335;48.860;9.198;2024-02-21T06:50:53;6.83;;;3.30;;
8594;SDS011;4335;48.860;9.198;2024-02-21T06:53:20;7.93;;;3.10;;
8594;SDS011;4335;48.860;9.198;2024-02-21T06:55:47;7.90;;;4.00;;
8594;SDS011;4335;48.860;9.198;2024-02-21T06:58:15;5.00;;;3.30;;
8594;SDS011;4335;48.860;9.198;2024-02-21T07:00:57;8.97;;;4.33;;
8594;SDS011;4335;48.860;9.198;2024-02-21T07:03:24;14.83;;;5.40;;
8594;SDS011;4335;48.860;9.198;2024-02-21T07:05:58;5.80;;;4.60;;
8594;SDS011;4335;48.860;9.198;2024-02-21T07:08:25;6.60;;;3.53;;
8594;SDS011;4335;48.860;9.198;2024-02-21T07:10:53;6.20;;;3.73;;
8594;SDS011;4335;48.860;9.198;2024-02-21T07:13:20;5.03;;;3.17;;
8594;SDS011;4335;48.860;9.198;2024-02-21T07:15:48;5.13;;;3.37;;
8594;SDS011;4335;48.860;9.198;2024-02-21T07:18:25;5.27;;;3.03;;
8594;SDS011;4335;48.860;9.198;2024-02-21T07:20:52;5.70;;;3.20;;
8594;SDS011;4335;48.860;9.198;2024-02-21T07:23:20;4.83;;;3.30;;
8594;SDS011;4335;48.860;9.198;2024-02-21T07:25:51;5.87;;;3.77;;
8594;SDS011;4335;48.860;9.198;2024-02-21T07:28:18;6.83;;;3.30;;
8594;SDS011;4335;48.860;9.198;2024-02-21T07:30:45;9.50;;;3.37;;
8594;SDS011;4335;48.860;9.198;2024-02-21T07:33:16;5.87;;;3.80;;
8594;SDS011;4335;48.860;9.198;2024-02-21T07:35:45;8.63;;;3.17;;
8594;SDS011;4335;48.860;9.198;2024-02-21T07:38:13;4.97;;;3.00;;
8594;SDS011;4335;48.860;9.198;2024-02-21T07:40:44;6.93;;;3.13;;
8594;SDS011;4335;48.860;9.198;2024-02-21T07:43:11;6.93;;;3.47;;
8594;SDS011;4335;48.860;9.198;2024-02-21T07:45:38;9.40;;;4.03;;
8594;SDS011;4335;48.860;9.198;2024-02-21T07:48:06;4.57;;;3.13;;
8594;SDS011;4335;48.860;9.198;2024-02-21T07:50:34;6.93;;;3.90;;
8594;SDS011;4335;48.860;9.198;2024-02-21T07:53:09;4.57;;;3.03;;
8594;SDS011;4335;48.860;9.198;2024-02-21T07:55:36;4.20;;;3.43;;
8594;SDS011;4335;48.860;9.198;2024-02-21T07:58:07;8.17;;;3.93;;
8594;SDS011;4335;48.860;9.198;2024-02-21T08:00:39;8.27;;;3.47;;
8594;SDS011;4335;48.860;9.198;2024-02-21T08:03:06;8.00;;;3.47;;
8594;SDS011;4335;48.860;9.198;2024-02-21T08:05:37;9.03;;;3.50;;
8594;SDS011;4335;48.860;9.198;2024-02-21T08:08:11;5.83;;;3.30;;
8594;SDS011;4335;48.860;9.198;2024-02-21T08:10:46;5.83;;;3.53;;
8594;SDS011;4335;48.860;9.198;2024-02-21T08:13:13;5.43;;;3.43;;
8594;SDS011;4335;48.860;9.198;2024-02-21T08:15:41;6.97;;;3.70;;
8594;SDS011;4335;48.860;9.198;2024-02-21T08:18:11;7.80;;;3.33;;
8594;SDS011;4335;48.860;9.198;2024-02-21T08:20:38;5.23;;;3.00;;
8594;SDS011;4335;48.860;9.198;2024-02-21T08:23:15;6.83;;;3.33;;
8594;SDS011;4335;48.860;9.198;2024-02-21T08:25:46;6.17;;;3.37;;
8594;SDS011;4335;48.860;9.198;2024-02-21T08:28:13;8.43;;;4.27;;
8594;SDS011;4335;48.860;9.198;2024-02-21T08:30:45;2.60;;;2.40;;
8594;SDS011;4335;48.860;9.198;2024-02-21T08:35:42;5.17;;;4.13;;
8594;SDS011;4335;48.860;9.198;2024-02-21T08:38:09;7.37;;;4.27;;
8594;SDS011;4335;48.860;9.198;2024-02-21T08:40:38;7.10;;;3.83;;
8594;SDS011;4335;48.860;9.198;2024-02-21T08:43:10;4.10;;;2.57;;
8594;SDS011;4335;48.860;9.198;2024-02-21T08:45:38;4.80;;;2.43;;
8594;SDS011;4335;48.860;9.198;2024-02-21T08:48:05;7.13;;;2.70;;
8594;SDS011;4335;48.860;9.198;2024-02-21T08:50:36;8.90;;;2.50;;
8594;SDS011;4335;48.860;9.198;2024-02-21T08:53:13;7.70;;;2.60;;
8594;SDS011;4335;48.860;9.198;2024-02-21T08:55:42;6.13;;;2.43;;
8594;SDS011;4335;48.860;9.198;2024-02-21T08:58:18;8.73;;;2.60;;
8594;SDS011;4335;48.860;9.198;2024-02-21T09:00:48;6.63;;;3.30;;
8594;SDS011;4335;48.860;9.198;2024-02-21T09:03:19;7.10;;;4.10;;
8594;SDS011;4335;48.860;9.198;2024-02-21T09:05:46;5.47;;;3.57;;
8594;SDS011;4335;48.860;9.198;2024-02-21T09:08:13;7.93;;;2.77;;
8594;SDS011;4335;48.860;9.198;2024-02-21T09:10:48;9.33;;;3.53;;
8594;SDS011;4335;48.860;9.198;2024-02-21T09:13:16;4.00;;;2.07;;
8594;SDS011;4335;48.860;9.198;2024-02-21T09:15:43;4.47;;;2.33;;
8594;SDS011;4335;48.860;9.198;2024-02-21T09:18:23;5.63;;;2.40;;
8594;SDS011;4335;48.860;9.198;2024-02-21T09:20:50;6.73;;;2.60;;
8594;SDS011;4335;48.860;9.198;2024-02-21T09:23:17;5.07;;;2.30;;
8594;SDS011;4335;48.860;9.198;2024-02-21T09:25:45;5.43;;;2.43;;
8594;SDS011;4335;48.860;9.198;2024-02-21T09:28:14;7.90;;;2.50;;
8594;SDS011;4335;48.860;9.198;2024-02-21T09:30:45;5.23;;;2.40;;
8594;SDS011;4335;48.860;9.198;2024-02-21T09:33:12;4.80;;;2.63;;
8594;SDS011;4335;48.860;9.198;2024-02-21T09:35:49;4.10;;;2.00;;
8594;SDS011;4335;48.860;9.198;2024-02-21T09:38:16;6.70;;;3.07;;
8594;SDS011;4335;48.860;9.198;2024-02-21T09:40:54;4.80;;;2.37;;
8594;SDS011;4335;48.860;9.198;2024-02-21T09:43:40;5.70;;;2.60;;
8594;SDS011;4335;48.860;9.198;2024-02-21T09:46:11;5.53;;;2.70;;
8594;SDS011;4335;48.860;9.198;2024-02-21T09:48:47;6.83;;;2.70;;
8594;SDS011;4335;48.860;9.198;2024-02-21T09:51:32;7.03;;;3.20;;
8594;SDS011;4335;48.860;9.198;2024-02-21T09:54:09;6.80;;;2.73;;
8594;SDS011;4335;48.860;9.198;2024-02-21T09:56:36;8.60;;;4.90;;
8594;SDS011;4335;48.860;9.198;2024-02-21T09:59:05;8.70;;;2.90;;
8594;SDS011;4335;48.860;9.198;2024-02-21T10:01:34;8.27;;;2.97;;
8594;SDS011;4335;48.860;9.198;2024-02-21T10:04:08;8.93;;;4.17;;
8594;SDS011;4335;48.860;9.198;2024-02-21T10:06:35;4.97;;;2.53;;
8594;SDS011;4335;48.860;9.198;2024-02-21T10:09:04;3.77;;;2.30;;
8594;SDS011;4335;48.860;9.198;2024-02-21T10:11:32;3.67;;;2.17;;
8594;SDS011;4335;48.860;9.198;2024-02-21T10:14:06;5.27;;;2.47;;
8594;SDS011;4335;48.860;9.198;2024-02-21T10:16:34;4.80;;;2.37;;
8594;SDS011;4335;48.860;9.198;2024-02-21T10:19:18;5.73;;;3.10;;
8594;SDS011;4335;48.860;9.198;2024-02-21T10:22:01;4.90;;;2.67;;
8594;SDS011;4335;48.860;9.198;2024-02-21T10:24:30;6.00;;;2.87;;
8594;SDS011;4335;48.860;9.198;2024-02-21T10:27:04;7.00;;;4.17;;
8594;SDS011;4335;48.860;9.198;2024-02-21T10:29:38;4.87;;;2.53;;
8594;SDS011;4335;48.860;9.198;2024-02-21T10:32:06;6.50;;;3.03;;
8594;SDS011;4335;48.860;9.198;2024-02-21T10:34:35;6.20;;;2.87;;
8594;SDS011;4335;48.860;9.198;2024-02-21T10:37:03;5.27;;;2.43;;
8594;SDS011;4335;48.860;9.198;2024-02-21T10:39:34;3.87;;;2.70;;
8594;SDS011;4335;48.860;9.198;2024-02-21T10:42:04;5.43;;;2.50;;
8594;SDS011;4335;48.860;9.198;2024-02-21T10:44:36;5.87;;;2.10;;
8594;SDS011;4335;48.860;9.198;2024-02-21T10:47:10;4.83;;;2.20;;
8594;SDS011;4335;48.860;9.198;2024-02-21T10:49:42;4.10;;;2.23;;
8594;SDS011;4335;48.860;9.198;2024-02-21T10:52:13;3.30;;;2.33;;
8594;SDS011;4335;48.860;9.198;2024-02-21T10:54:51;5.30;;;3.20;;
8594;SDS011;4335;48.860;9.198;2024-02-21T10:57:22;3.00;;;2.40;;
8594;SDS011;4335;48.860;9.198;2024-02-21T11:00:02;4.20;;;2.60;;
8594;SDS011;4335;48.860;9.198;2024-02-21T11:02:39;7.00;;;2.10;;
8594;SDS011;4335;48.860;9.198;2024-02-21T11:05:07;4.93;;;2.23;;
8594;SDS011;4335;48.860;9.198;2024-02-21T11:07:38;4.67;;;2.63;;
8594;SDS011;4335;48.860;9.198;2024-02-21T11:10:19;2.60;;;2.33;;
8594;SDS011;4335;48.860;9.198;2024-02-21T11:12:49;4.60;;;2.43;;
8594;SDS011;4335;48.860;9.198;2024-02-21T11:15:26;7.37;;;3.30;;
8594;SDS011;4335;48.860;9.198;2024-02-21T11:17:54;5.20;;;2.93;;
8594;SDS011;4335;48.860;9.198;2024-02-21T11:20:34;3.37;;;1.90;;
8594;SDS011;4335;48.860;9.198;2024-02-21T11:23:04;8.03;;;3.27;;
8594;SDS011;4335;48.860;9.198;2024-02-21T11:25:31;6.63;;;2.90;;
8594;SDS011;4335;48.860;9.198;2024-02-21T11:28:05;3.23;;;2.43;;
8594;SDS011;4335;48.860;9.198;2024-02-21T11:30:44;4.80;;;2.70;;
8594;SDS011;4335;48.860;9.198;2024-02-21T11:33:12;4.40;;;2.60;;
8594;SDS011;4335;48.860;9.198;2024-02-21T11:35:39;4.43;;;2.37;;
8594;SDS011;4335;48.860;9.198;2024-02-21T11:38:10;4.73;;;2.27;;
8594;SDS011;4335;48.860;9.198;2024-02-21T11:40:39;4.73;;;2.50;;
8594;SDS011;4335;48.860;9.198;2024-02-21T11:43:15;4.70;;;2.10;;
8594;SDS011;4335;48.860;9.198;2024-02-21T11:45:52;4.27;;;1.80;;
8594;SDS011;4335;48.860;9.198;2024-02-21T11:48:28;4.50;;;2.60;;
8594;SDS011;4335;48.860;9.198;2024-02-21T11:50:56;5.20;;;2.47;;
8594;SDS011;4335;48.860;9.198;2024-02-21T11:53:26;5.37;;;2.40;;
8594;SDS011;4335;48.860;9.198;2024-02-21T11:55:56;3.50;;;1.80;;
8594;SDS011;4335;48.860;9.198;2024-02-21T11:58:28;5.27;;;2.53;;
8594;SDS011;4335;48.860;9.198;2024-02-21T12:01:00;4.87;;;1.73;;
8594;SDS011;4335;48.860;9.198;2024-02-21T12:03:38;4.90;;;2.10;;
8594;SDS011;4335;48.860;9.198;2024-02-21T12:06:09;5.67;;;2.40;;
8594;SDS011;4335;48.860;9.198;2024-02-21T12:08:46;7.60;;;2.57;;
8594;SDS011;4335;48.860;9.198;2024-02-21T12:11:27;4.90;;;2.57;;
8594;SDS011;4335;48.860;9.198;2024-02-21T12:14:00;6.97;;;2.30;;
8594;SDS011;4335;48.860;9.198;2024-02-21T12:16:37;4.23;;;2.40;;
8594;SDS011;4335;48.860;9.198;2024-02-21T12:19:05;3.00;;;1.90;;
8594;SDS011;4335;48.860;9.198;2024-02-21T12:21:33;4.17;;;1.83;;
8594;SDS011;4335;48.860;9.198;2024-02-21T12:24:11;4.83;;;2.50;;
8594;SDS011;4335;48.860;9.198;2024-02-21T12:26:39;3.57;;;2.30;;
8594;SDS011;4335;48.860;9.198;2024-02-21T12:29:07;4.10;;;2.07;;
8594;SDS011;4335;48.860;9.198;2024-02-21T12:31:35;4.37;;;2.30;;
8594;SDS011;4335;48.860;9.198;2024-02-21T12:34:04;2.83;;;1.83;;
8594;SDS011;4335;48.860;9.198;2024-02-21T12:36:32;7.17;;;3.30;;
8594;SDS011;4335;48.860;9.198;2024-02-21T12:38:59;5.57;;;2.70;;
8594;SDS011;4335;48.860;9.198;2024-02-21T12:41:28;4.00;;;2.40;;
8594;SDS011;4335;48.860;9.198;2024-02-21T12:43:57;4.97;;;2.83;;
8594;SDS011;4335;48.860;9.198;2024-02-21T12:46:24;4.43;;;2.70;;
8594;SDS011;4335;48.860;9.198;2024-02-21T12:48:53;6.20;;;2.10;;
8594;SDS011;4335;48.860;9.198;2024-02-21T12:51:20;3.37;;;2.17;;
8594;SDS011;4335;48.860;9.198;2024-02-21T12:53:53;2.83;;;1.97;;
8594;SDS011;4335;48.860;9.198;2024-02-21T12:56:24;2.20;;;2.00;;
8594;SDS011;4335;48.860;9.198;2024-02-21T12:58:52;6.13;;;2.40;;
8594;SDS011;4335;48.860;9.198;2024-02-21T13:01:20;6.87;;;2.10;;
8594;SDS011;4335;48.860;9.198;2024-02-21T13:03:47;4.53;;;2.83;;
8594;SDS011;4335;48.860;9.198;2024-02-21T13:06:16;2.37;;;1.87;;
8594;SDS011;4335;48.860;9.198;2024-02-21T13:08:44;2.43;;;1.77;;
8594;SDS011;4335;48.860;9.198;2024-02-21T13:11:12;4.90;;;2.03;;
8594;SDS011;4335;48.860;9.198;2024-02-21T13:13:39;2.03;;;1.73;;
8594;SDS011;4335;48.860;9.198;2024-02-21T13:16:07;4.13;;;1.83;;
8594;SDS011;4335;48.860;9.198;2024-02-21T13:18:35;7.33;;;1.90;;
8594;SDS011;4335;48.860;9.198;2024-02-21T13:21:08;3.37;;;1.73;;
8594;SDS011;4335;48.860;9.198;2024-02-21T13:23:41;5.00;;;1.93;;
8594;SDS011;4335;48.860;9.198;2024-02-21T13:26:12;3.13;;;2.10;;
8594;SDS011;4335;48.860;9.198;2024-02-21T13:28:40;4.03;;;1.80;;
8594;SDS011;4335;48.860;9.198;2024-02-21T13:31:10;3.87;;;2.27;;
8594;SDS011;4335;48.860;9.198;2024-02-21T13:33:46;2.87;;;2.00;;
8594;SDS011;4335;48.860;9.198;2024-02-21T13:36:17;4.17;;;2.20;;
8594;SDS011;4335;48.860;9.198;2024-02-21T13:38:58;3.57;;;1.83;;
8594;SDS011;4335;48.860;9.198;2024-02-21T13:41:26;3.33;;;2.60;;
8594;SDS011;4335;48.860;9.198;2024-02-21T13:43:56;3.63;;;1.90;;
8594;SDS011;4335;48.860;9.198;2024-02-21T13:46:28;2.60;;;1.33;;
8594;SDS011;4335;48.860;9.198;2024-02-21T13:49:03;4.03;;;1.70;;
8594;SDS011;4335;48.860;9.198;2024-02-21T13:51:35;2.60;;;1.80;;
8594;SDS011;4335;48.860;9.198;2024-02-21T13:54:04;2.93;;;1.60;;
8594;SDS011;4335;48.860;9.198;2024-02-21T13:56:34;3.87;;;2.50;;
8594;SDS011;4335;48.860;9.198;2024-02-21T13:59:04;3.47;;;1.60;;
8594;SDS011;4335;48.860;9.198;2024-02-21T14:01:32;2.73;;;1.67;;
8594;SDS011;4335;48.860;9.198;2024-02-21T14:04:00;2.87;;;1.80;;
8594;SDS011;4335;48.860;9.198;2024-02-21T14:06:29;3.00;;;2.13;;
8594;SDS011;4335;48.860;9.198;2024-02-21T14:08:56;3.13;;;2.30;;
8594;SDS011;4335;48.860;9.198;2024-02-21T14:11:25;2.50;;;1.70;;
8594;SDS011;4335;48.860;9.198;2024-02-21T14:13:53;3.87;;;1.57;;
8594;SDS011;4335;48.860;9.198;2024-02-21T14:16:22;3.63;;;1.90;;
8594;SDS011;4335;48.860;9.198;2024-02-21T14:19:02;3.43;;;1.70;;
8594;SDS011;4335;48.860;9.198;2024-02-21T14:21:30;3.90;;;2.07;;
8594;SDS011;4335;48.860;9.198;2024-02-21T14:23:57;6.73;;;2.20;;
8594;SDS011;4335;48.860;9.198;2024-02-21T14:26:29;4.90;;;2.10;;
8594;SDS011;4335;48.860;9.198;2024-02-21T14:28:57;3.77;;;1.93;;
8594;SDS011;4335;48.860;9.198;2024-02-21T14:31:24;2.50;;;1.93;;
8594;SDS011;4335;48.860;9.198;2024-02-21T14:33:51;4.23;;;2.63;;
8594;SDS011;4335;48.860;9.198;2024-02-21T14:36:25;7.07;;;2.23;;
8594;SDS011;4335;48.860;9.198;2024-02-21T14:38:56;3.57;;;2.37;;
8594;SDS011;4335;48.860;9.198;2024-02-21T14:41:31;4.87;;;2.40;;
8594;SDS011;4335;48.860;9.198;2024-02-21T14:44:03;4.53;;;1.73;;
8594;SDS011;4335;48.860;9.198;2024-02-21T14:46:30;3.60;;;1.93;;
8594;SDS011;4335;48.860;9.198;2024-02-21T14:48:58;6.47;;;2.00;;
8594;SDS011;4335;48.860;9.198;2024-02-21T14:51:27;5.30;;;2.30;;
8594;SDS011;4335;48.860;9.198;2024-02-21T14:53:55;5.00;;;1.87;;
8594;SDS011;4335;48.860;9.198;2024-02-21T14:56:23;5.07;;;2.27;;
8594;SDS011;4335;48.860;9.198;2024-02-21T14:58:54;7.80;;;1.97;;
8594;SDS011;4335;48.860;9.198;2024-02-21T15:01:21;2.57;;;1.73;;
8594;SDS011;4335;48.860;9.198;2024-02-21T15:03:55;1.90;;;1.73;;
8594;SDS011;4335;48.860;9.198;2024-02-21T15:06:23;6.10;;;2.37;;
8594;SDS011;4335;48.860;9.198;2024-02-21T15:08:51;6.03;;;1.77;;
8594;SDS011;4335;48.860;9.198;2024-02-21T15:11:18;3.33;;;1.80;;
8594;SDS011;4335;48.860;9.198;2024-02-21T15:13:47;2.50;;;1.70;;
8594;SDS011;4335;48.860;9.198;2024-02-21T15:16:19;7.83;;;4.00;;
8594;SDS011;4335;48.860;9.198;2024-02-21T15:18:49;4.00;;;2.70;;
8594;SDS011;4335;48.860;9.198;2024-02-21T15:21:20;5.63;;;3.20;;
8594;SDS011;4335;48.860;9.198;2024-02-21T15:23:47;4.90;;;2.97;;
8594;SDS011;4335;48.860;9.198;2024-02-21T15:26:21;4.40;;;3.03;;
8594;SDS011;4335;48.860;9.198;2024-02-21T15:28:49;6.43;;;3.50;;
8594;SDS011;4335;48.860;9.198;2024-02-21T15:31:21;2.60;;;2.07;;
8594;SDS011;4335;48.860;9.198;2024-02-21T15:33:52;4.33;;;2.97;;
8594;SDS011;4335;48.860;9.198;2024-02-21T15:36:20;2.70;;;1.83;;
8594;SDS011;4335;48.860;9.198;2024-02-21T15:38:48;2.67;;;2.40;;